Time,TemperatureF,DewpointF,PressureIn,WindDirection,WindDirectionDegrees,WindSpeedMPH,WindSpeedGustMPH,Humidity,HourlyPrecipIn,Conditions,Clouds,dailyrainin,SoftwareType,DateUTC
2013-01-23 00:14:00,67.1,51.8,30.07,NE,45,8.3,-999.0,58,-99.99,,,0.00,Acu-Link.com,2013-01-23 05:14:00,
2013-01-23 00:29:00,67.3,52.5,30.06,ENE,67,8.3,-999.0,59,-99.99,,,0.00,Acu-Link.com,2013-01-23 05:29:00,
2013-01-23 00:44:00,66.9,52.6,30.06,NE,45,6.3,-999.0,60,-99.99,,,0.00,Acu-Link.com,2013-01-23 05:44:00,
2013-01-23 01:00:00,66.7,52.8,30.06,East,90,5.8,-999.0,61,-99.99,,,0.00,Acu-Link.com,2013-01-23 06:00:00,
2013-01-23 01:15:00,66.7,52.8,30.06,NE,45,6.3,-999.0,61,-99.99,,,0.00,Acu-Link.com,2013-01-23 06:15:00,
2013-01-23 01:30:00,66.9,52.6,30.06,NE,45,13.0,-999.0,60,-99.99,,,0.00,Acu-Link.com,2013-01-23 06:30:00,
2013-01-23 01:46:00,66.7,52.8,30.05,NE,45,5.8,-999.0,61,-99.99,,,0.00,Acu-Link.com,2013-01-23 06:46:00,
2013-01-23 02:13:00,66.7,52.4,30.05,NE,45,5.8,-999.0,60,-99.99,,,0.00,Acu-Link.com,2013-01-23 07:13:00,
2013-01-23 02:28:00,66.6,53.2,30.06,NNE,22,4.2,-999.0,62,-99.99,,,0.00,Acu-Link.com,2013-01-23 07:28:00,
2013-01-23 02:43:00,66.6,53.2,30.06,NE,45,3.7,-999.0,62,-99.99,,,0.00,Acu-Link.com,2013-01-23 07:43:00,
2013-01-23 02:59:00,66.4,53.4,30.06,East,90,4.2,-999.0,63,-99.99,,,0.00,Acu-Link.com,2013-01-23 07:59:00,
2013-01-23 03:14:00,66.2,53.2,30.06,ENE,67,4.2,-999.0,63,-99.99,,,0.00,Acu-Link.com,2013-01-23 08:14:00,
2013-01-23 03:30:00,66.2,53.2,30.06,NE,45,3.7,-999.0,63,-99.99,,,0.00,Acu-Link.com,2013-01-23 08:30:00,
2013-01-23 03:59:00,66.0,53.0,30.06,NE,45,3.7,-999.0,63,-99.99,,,0.00,Acu-Link.com,2013-01-23 08:59:00,
2013-01-23 04:15:00,66.4,53.0,30.07,NNE,22,5.3,-999.0,62,-99.99,,,0.00,Acu-Link.com,2013-01-23 09:15:00,
2013-01-23 04:30:00,66.2,53.2,30.06,NE,45,3.2,-999.0,63,-99.99,,,0.00,Acu-Link.com,2013-01-23 09:30:00,
2013-01-23 04:45:00,63.9,55.1,30.06,NW,315,2.7,-999.0,73,-99.99,,,0.00,Acu-Link.com,2013-01-23 09:45:00,
2013-01-23 05:00:00,62.6,54.9,30.06,WNW,292,3.7,-999.0,76,-99.99,,,0.00,Acu-Link.com,2013-01-23 10:00:00,
2013-01-23 05:15:00,62.1,55.2,30.07,North,0,4.7,-999.0,78,-99.99,,,0.00,Acu-Link.com,2013-01-23 10:15:00,
2013-01-23 05:30:00,61.9,55.3,30.06,NE,45,3.7,-999.0,79,-99.99,,,0.00,Acu-Link.com,2013-01-23 10:30:00,
2013-01-23 05:45:00,61.5,54.9,30.06,North,0,4.7,-999.0,79,-99.99,,,0.00,Acu-Link.com,2013-01-23 10:45:00,
2013-01-23 06:01:00,61.3,55.1,30.07,NNW,337,3.7,-999.0,80,-99.99,,,0.00,Acu-Link.com,2013-01-23 11:01:00,
2013-01-23 06:16:00,61.0,55.1,30.07,NW,315,2.2,-999.0,81,-99.99,,,0.00,Acu-Link.com,2013-01-23 11:16:00,
2013-01-23 06:31:00,61.0,55.1,30.08,NW,315,4.2,-999.0,81,-99.99,,,0.00,Acu-Link.com,2013-01-23 11:31:00,
2013-01-23 06:46:00,60.8,54.9,30.09,North,0,2.2,-999.0,81,-99.99,,,0.00,Acu-Link.com,2013-01-23 11:46:00,
2013-01-23 07:01:00,60.6,54.7,30.09,NNE,22,5.3,-999.0,81,-99.99,,,0.00,Acu-Link.com,2013-01-23 12:01:00,
2013-01-23 07:46:00,60.8,54.9,30.11,NW,315,5.8,-999.0,81,-99.99,,,0.00,Acu-Link.com,2013-01-23 12:46:00,
2013-01-23 08:17:00,61.7,54.8,30.11,NNW,337,6.3,-999.0,78,-99.99,,,0.00,Acu-Link.com,2013-01-23 13:17:00,
2013-01-23 08:32:00,62.2,55.3,30.12,NNW,337,5.8,-999.0,78,-99.99,,,0.00,Acu-Link.com,2013-01-23 13:32:00,
2013-01-23 08:47:00,62.6,55.3,30.13,NNW,337,3.7,-999.0,77,-99.99,,,0.00,Acu-Link.com,2013-01-23 13:47:00,
2013-01-23 09:02:00,63.1,55.8,30.14,NE,45,4.2,-999.0,77,-99.99,,,0.00,Acu-Link.com,2013-01-23 14:02:00,
2013-01-23 09:17:00,64.4,56.3,30.14,ENE,67,5.3,-999.0,75,-99.99,,,0.00,Acu-Link.com,2013-01-23 14:17:00,
2013-01-23 09:32:00,64.0,56.3,30.14,NNW,337,6.3,-999.0,76,-99.99,,,0.00,Acu-Link.com,2013-01-23 14:32:00,
2013-01-23 09:47:00,63.9,56.2,30.15,NE,45,6.8,-999.0,76,-99.99,,,0.00,Acu-Link.com,2013-01-23 14:47:00,
2013-01-23 10:02:00,64.0,56.3,30.15,NNW,337,7.3,-999.0,76,-99.99,,,0.00,Acu-Link.com,2013-01-23 15:02:00,
2013-01-23 10:17:00,64.9,56.8,30.15,NNW,337,3.2,-999.0,75,-99.99,,,0.00,Acu-Link.com,2013-01-23 15:17:00,
2013-01-23 10:33:00,68.0,57.4,30.15,NE,45,7.3,-999.0,69,-99.99,,,0.00,Acu-Link.com,2013-01-23 15:33:00,
2013-01-23 10:48:00,69.6,57.7,30.16,NNW,337,5.8,-999.0,66,-99.99,,,0.00,Acu-Link.com,2013-01-23 15:48:00,
2013-01-23 11:03:00,70.5,58.2,30.14,WNW,292,1.7,-999.0,65,-99.99,,,0.00,Acu-Link.com,2013-01-23 16:03:00,
2013-01-23 11:18:00,71.6,57.9,30.14,ENE,67,5.3,-999.0,62,-99.99,,,0.00,Acu-Link.com,2013-01-23 16:18:00,
2013-01-23 11:33:00,71.1,57.9,30.13,NE,45,7.3,-999.0,63,-99.99,,,0.00,Acu-Link.com,2013-01-23 16:33:00,
2013-01-23 11:48:00,72.1,55.5,30.12,ESE,112,6.8,-999.0,56,-99.99,,,0.00,Acu-Link.com,2013-01-23 16:48:00,
2013-01-23 12:04:00,73.0,53.2,30.12,NE,45,9.4,-999.0,50,-99.99,,,0.00,Acu-Link.com,2013-01-23 17:04:00,
2013-01-23 12:19:00,73.8,52.9,30.11,NE,45,7.3,-999.0,48,-99.99,,,0.00,Acu-Link.com,2013-01-23 17:19:00,
2013-01-23 12:34:00,73.4,52.5,30.11,NE,45,10.9,-999.0,48,-99.99,,,0.00,Acu-Link.com,2013-01-23 17:34:00,
2013-01-23 12:49:00,73.0,52.1,30.11,NE,45,8.9,-999.0,48,-99.99,,,0.00,Acu-Link.com,2013-01-23 17:49:00,
2013-01-23 13:04:00,74.1,52.0,30.10,NE,45,7.8,-999.0,46,-99.99,,,0.00,Acu-Link.com,2013-01-23 18:04:00,
2013-01-23 13:19:00,73.9,53.5,30.09,ESE,112,7.3,-999.0,49,-99.99,,,0.00,Acu-Link.com,2013-01-23 18:19:00,
2013-01-23 13:35:00,72.7,54.0,30.09,ENE,67,9.4,-999.0,52,-99.99,,,0.00,Acu-Link.com,2013-01-23 18:35:00,
2013-01-23 13:53:00,73.9,54.1,30.08,ENE,67,11.4,-999.0,50,-99.99,,,0.00,Acu-Link.com,2013-01-23 18:53:00,
2013-01-23 14:08:00,73.8,53.4,30.08,East,90,8.9,-999.0,49,-99.99,,,0.00,Acu-Link.com,2013-01-23 19:08:00,
2013-01-23 14:23:00,73.4,53.6,30.08,East,90,8.3,-999.0,50,-99.99,,,0.00,Acu-Link.com,2013-01-23 19:23:00,
2013-01-23 14:38:00,73.2,53.4,30.08,NNE,22,10.4,-999.0,50,-99.99,,,0.00,Acu-Link.com,2013-01-23 19:38:00,
2013-01-23 14:53:00,72.0,53.9,30.08,East,90,6.8,-999.0,53,-99.99,,,0.00,Acu-Link.com,2013-01-23 19:53:00,
2013-01-23 15:08:00,73.0,53.8,30.08,ENE,67,8.9,-999.0,51,-99.99,,,0.00,Acu-Link.com,2013-01-23 20:08:00,
2013-01-23 15:23:00,72.0,53.4,30.08,ESE,112,8.3,-999.0,52,-99.99,,,0.00,Acu-Link.com,2013-01-23 20:23:00,
2013-01-23 15:39:00,72.9,53.7,30.08,NE,45,6.8,-999.0,51,-99.99,,,0.00,Acu-Link.com,2013-01-23 20:39:00,
2013-01-23 15:54:00,71.4,52.8,30.08,ESE,112,7.8,-999.0,52,-99.99,,,0.00,Acu-Link.com,2013-01-23 20:54:00,
2013-01-23 16:09:00,72.5,53.9,30.09,East,90,8.9,-999.0,52,-99.99,,,0.00,Acu-Link.com,2013-01-23 21:09:00,
2013-01-23 16:24:00,71.8,53.2,30.09,ENE,67,10.4,-999.0,52,-99.99,,,0.00,Acu-Link.com,2013-01-23 21:24:00,
2013-01-23 16:39:00,70.9,53.9,30.09,East,90,6.3,-999.0,55,-99.99,,,0.00,Acu-Link.com,2013-01-23 21:39:00,
2013-01-23 16:54:00,71.2,53.7,30.09,ENE,67,8.3,-999.0,54,-99.99,,,0.00,Acu-Link.com,2013-01-23 21:54:00,
2013-01-23 17:09:00,70.9,53.9,30.10,NE,45,6.3,-999.0,55,-99.99,,,0.00,Acu-Link.com,2013-01-23 22:09:00,
2013-01-23 17:24:00,70.7,53.7,30.11,NE,45,12.5,-999.0,55,-99.99,,,0.00,Acu-Link.com,2013-01-23 22:24:00,
2013-01-23 17:40:00,70.2,53.8,30.10,ENE,67,6.3,-999.0,56,-99.99,,,0.00,Acu-Link.com,2013-01-23 22:40:00,
2013-01-23 17:55:00,69.3,53.9,30.09,ENE,67,3.2,-999.0,58,-99.99,,,0.00,Acu-Link.com,2013-01-23 22:55:00,
2013-01-23 18:10:00,68.5,53.6,30.10,NE,45,5.8,-999.0,59,-99.99,,,0.00,Acu-Link.com,2013-01-23 23:10:00,
2013-01-23 18:25:00,67.6,53.7,30.09,NE,45,3.7,-999.0,61,-99.99,,,0.00,Acu-Link.com,2013-01-23 23:25:00,
2013-01-23 18:41:00,67.3,54.3,30.10,NE,45,3.7,-999.0,63,-99.99,,,0.00,Acu-Link.com,2013-01-23 23:41:00,
2013-01-23 18:56:00,66.9,57.2,30.11,NNE,22,5.8,-999.0,71,-99.99,,,0.00,Acu-Link.com,2013-01-23 23:56:00,
2013-01-23 19:11:00,66.2,57.7,30.11,NE,45,3.2,-999.0,74,-99.99,,,0.00,Acu-Link.com,2013-01-24 00:11:00,
2013-01-23 19:26:00,65.7,57.9,30.12,NNE,22,5.8,-999.0,76,-99.99,,,0.00,Acu-Link.com,2013-01-24 00:26:00,
2013-01-23 19:41:00,65.1,57.7,30.13,NW,315,9.9,-999.0,77,-99.99,,,0.00,Acu-Link.com,2013-01-24 00:41:00,
2013-01-23 19:56:00,64.6,57.6,30.13,NNE,22,5.3,-999.0,78,-99.99,,,0.00,Acu-Link.com,2013-01-24 00:56:00,
2013-01-23 20:11:00,64.2,57.5,30.13,NNE,22,4.2,-999.0,79,-99.99,,,0.00,Acu-Link.com,2013-01-24 01:11:00,
2013-01-23 20:26:00,63.9,57.3,30.12,NNE,22,5.3,-999.0,79,-99.99,,,0.00,Acu-Link.com,2013-01-24 01:26:00,
2013-01-23 20:42:00,63.5,56.9,30.13,North,0,6.3,-999.0,79,-99.99,,,0.00,Acu-Link.com,2013-01-24 01:42:00,
2013-01-23 20:57:00,63.1,56.5,30.13,NNW,337,5.8,-999.0,79,-99.99,,,0.00,Acu-Link.com,2013-01-24 01:57:00,
2013-01-23 21:12:00,62.6,56.3,30.13,North,0,4.7,-999.0,80,-99.99,,,0.00,Acu-Link.com,2013-01-24 02:12:00,
2013-01-23 21:30:00,62.2,56.0,30.13,North,0,4.2,-999.0,80,-99.99,,,0.00,Acu-Link.com,2013-01-24 02:30:00,
2013-01-23 21:45:00,61.9,55.7,30.13,NW,315,4.7,-999.0,80,-99.99,,,0.00,Acu-Link.com,2013-01-24 02:45:00,
2013-01-23 22:00:00,61.7,55.8,30.14,NNE,22,4.2,-999.0,81,-99.99,,,0.00,Acu-Link.com,2013-01-24 03:00:00,
2013-01-23 22:15:00,61.3,55.4,30.13,NE,45,3.2,-999.0,81,-99.99,,,0.00,Acu-Link.com,2013-01-24 03:15:00,
2013-01-23 22:30:00,61.0,55.5,30.14,North,0,2.7,-999.0,82,-99.99,,,0.00,Acu-Link.com,2013-01-24 03:30:00,
2013-01-23 22:45:00,60.8,55.3,30.12,ENE,67,2.7,-999.0,82,-99.99,,,0.00,Acu-Link.com,2013-01-24 03:45:00,
2013-01-23 23:00:00,60.4,55.5,30.12,NNW,337,1.7,-999.0,84,-99.99,,,0.00,Acu-Link.com,2013-01-24 04:00:00,
2013-01-23 23:16:00,60.1,55.2,30.11,NW,315,1.7,-999.0,84,-99.99,,,0.00,Acu-Link.com,2013-01-24 04:16:00,
2013-01-23 23:31:00,59.5,55.0,30.11,NW,315,2.2,-999.0,85,-99.99,,,0.00,Acu-Link.com,2013-01-24 04:31:00,
2013-01-23 23:46:00,59.5,55.0,30.12,NW,315,2.2,-999.0,85,-99.99,,,0.00,Acu-Link.com,2013-01-24 04:46:00,